createdAt,value
2019-06-08T15:04:42.462Z,22.60
2019-06-08T15:07:47.667Z,22.70
2019-06-08T15:10:49.794Z,22.80
2019-06-08T15:13:51.640Z,22.90
2019-06-08T15:16:54.121Z,22.90
2019-06-08T15:19:55.680Z,22.90
2019-06-08T15:22:57.865Z,23.00
2019-06-08T15:26:02.850Z,23.10
2019-06-08T15:29:04.610Z,23.20
2019-06-08T15:32:08.138Z,23.20
2019-06-08T15:35:09.577Z,23.20
2019-06-08T15:38:10.995Z,23.20
2019-06-08T15:41:12.506Z,23.20
2019-06-08T15:44:14.020Z,23.10
2019-06-08T15:47:18.063Z,23.10
2019-06-08T15:50:19.891Z,23.20
2019-06-08T15:53:22.321Z,23.20
2019-06-08T15:56:38.221Z,23.10
2019-06-08T15:59:30.878Z,23.10
2019-06-08T16:02:32.019Z,23.20
2019-06-08T16:05:33.880Z,23.20
2019-06-08T16:08:38.484Z,23.10
2019-06-08T16:11:40.091Z,23.20
2019-06-08T16:14:43.058Z,23.20
2019-06-08T16:17:44.594Z,23.10
2019-06-08T16:20:49.283Z,23.10
2019-06-08T16:23:50.689Z,23.10
2019-06-08T16:26:53.707Z,23.10
2019-06-08T16:29:55.279Z,23.10
2019-06-08T16:32:57.281Z,23.10
2019-06-08T16:36:00.364Z,23.10
2019-06-08T16:39:02.094Z,23.20
2019-06-08T16:42:05.175Z,23.20
2019-06-08T16:45:07.071Z,23.20
2019-06-08T16:48:08.810Z,23.20
2019-06-08T16:51:10.565Z,23.10
2019-06-08T16:54:14.028Z,23.00
2019-06-08T16:57:15.754Z,23.00
2019-06-08T17:00:30.320Z,23.00
2019-06-08T17:03:21.273Z,23.00
2019-06-08T17:06:22.749Z,23.10
2019-06-08T17:09:24.479Z,23.10
2019-06-08T17:12:25.924Z,23.10
2019-06-08T17:15:31.863Z,23.10
2019-06-08T17:18:34.228Z,23.10
2019-06-08T17:21:36.370Z,23.10
2019-06-08T17:24:38.897Z,23.10
2019-06-08T17:27:40.972Z,23.10
2019-06-08T17:30:42.636Z,23.00
2019-06-08T17:33:44.078Z,23.00
2019-06-08T17:36:45.609Z,23.00
2019-06-08T17:39:47.026Z,22.90
2019-06-08T17:42:48.516Z,22.90
2019-06-08T17:45:49.904Z,22.90
2019-06-08T17:48:51.382Z,22.80
2019-06-08T17:51:52.834Z,22.80
2019-06-08T17:54:54.388Z,22.80
2019-06-08T17:57:55.802Z,22.80
2019-06-08T18:00:57.258Z,22.70
2019-06-08T18:03:58.931Z,22.60
2019-06-08T18:07:00.462Z,22.50
2019-06-08T18:10:01.841Z,22.40
2019-06-08T18:13:03.331Z,22.30
2019-06-08T18:16:05.066Z,22.20
2019-06-08T18:19:08.092Z,22.10
2019-06-08T18:22:15.355Z,22.00
2019-06-08T18:25:13.400Z,21.90
2019-06-08T18:28:17.066Z,21.90
2019-06-08T18:31:18.273Z,21.80
2019-06-08T18:34:19.758Z,21.80
2019-06-08T18:37:21.211Z,21.70
2019-06-08T18:40:22.905Z,21.60
2019-06-08T18:43:27.984Z,21.60
2019-06-08T18:46:30.485Z,21.50
2019-06-08T18:49:32.064Z,21.40
2019-06-08T18:52:33.777Z,21.40
2019-06-08T18:55:36.309Z,21.20
2019-06-08T18:58:39.659Z,21.10
2019-06-08T19:01:42.141Z,21.00
2019-06-08T19:04:45.625Z,21.00
2019-06-08T19:07:50.252Z,20.80
2019-06-08T19:10:51.181Z,20.70
2019-06-08T19:13:54.275Z,20.60
2019-06-08T19:16:58.091Z,20.50
2019-06-08T19:19:59.081Z,20.50
2019-06-08T19:23:00.950Z,20.40
2019-06-08T19:26:03.416Z,20.30
2019-06-08T19:29:07.586Z,20.30
2019-06-08T19:32:08.421Z,20.20
2019-06-08T19:35:10.222Z,20.10
2019-06-08T19:38:11.792Z,19.90
2019-06-08T19:41:13.367Z,19.80
2019-06-08T19:44:14.824Z,19.70
2019-06-08T19:47:17.641Z,19.70
2019-06-08T19:50:19.824Z,19.60
2019-06-08T19:53:21.489Z,19.50
2019-06-08T19:56:22.905Z,19.40
2019-06-08T19:59:24.401Z,19.30
2019-06-08T20:02:27.159Z,19.20
2019-06-08T20:05:29.001Z,19.10
2019-06-08T20:08:30.451Z,19.10
2019-06-08T20:11:32.115Z,19.00
2019-06-08T20:14:33.586Z,19.00
2019-06-08T20:17:37.155Z,18.90
2019-06-08T20:20:38.277Z,18.80
2019-06-08T20:23:41.045Z,18.80
2019-06-08T20:26:42.653Z,18.70
2019-06-08T20:29:45.110Z,18.60
2019-06-08T20:32:50.799Z,18.60
2019-06-08T20:35:51.925Z,18.60
2019-06-08T20:38:53.485Z,18.60
2019-06-08T20:41:54.895Z,18.40
2019-06-08T20:44:57.786Z,18.40
2019-06-08T20:47:59.355Z,18.30
2019-06-08T20:51:00.774Z,18.30
2019-06-08T20:54:02.207Z,18.20
2019-06-08T20:57:03.630Z,18.20
2019-06-08T21:00:09.202Z,18.10
2019-06-08T21:03:09.932Z,18.00
2019-06-08T21:06:11.397Z,18.00
2019-06-08T21:09:12.815Z,18.00
2019-06-08T21:12:14.296Z,18.00
2019-06-08T21:15:17.779Z,17.90
2019-06-08T21:18:19.316Z,17.90
2019-06-08T21:21:21.241Z,17.80
2019-06-08T21:24:23.021Z,17.70
2019-06-08T21:27:24.510Z,17.70
2019-06-08T21:30:28.491Z,17.70
2019-06-08T21:33:29.205Z,17.60
2019-06-08T21:36:30.674Z,17.60
2019-06-08T21:39:36.059Z,17.60
2019-06-08T21:42:37.193Z,17.60
2019-06-08T21:45:39.784Z,17.60
2019-06-08T21:48:41.276Z,17.60
2019-06-08T21:51:43.563Z,17.50
2019-06-08T21:54:45.003Z,17.50
2019-06-08T21:57:49.489Z,17.50
2019-06-08T22:00:52.703Z,17.50
2019-06-08T22:03:56.553Z,17.40
2019-06-08T22:06:59.651Z,17.40
2019-06-08T22:10:02.789Z,17.40
2019-06-08T22:13:08.061Z,17.40
2019-06-08T22:16:08.828Z,17.40
2019-06-08T22:19:10.377Z,17.30
2019-06-08T22:22:12.803Z,17.30
2019-06-08T22:25:45.065Z,17.30
2019-06-08T22:28:17.808Z,17.30
2019-06-08T22:31:19.268Z,17.20
2019-06-08T22:34:20.720Z,17.20
2019-06-08T22:37:22.847Z,17.20
2019-06-08T22:40:24.281Z,17.20
2019-06-08T22:43:25.805Z,17.10
2019-06-08T22:46:27.237Z,17.10
2019-06-08T22:49:28.654Z,17.10
2019-06-08T22:52:30.089Z,17.10
2019-06-08T22:55:31.560Z,17.00
2019-06-08T22:58:34.065Z,17.00
2019-06-08T23:01:37.711Z,17.00
2019-06-08T23:04:38.609Z,17.00
2019-06-08T23:07:40.043Z,16.90
2019-06-08T23:10:41.492Z,16.90
2019-06-08T23:13:42.923Z,16.90
2019-06-08T23:16:44.371Z,16.90
2019-06-08T23:19:48.054Z,16.80
2019-06-08T23:22:48.978Z,16.80
2019-06-08T23:25:50.411Z,16.80
2019-06-08T23:28:51.812Z,16.70
2019-06-08T23:31:53.303Z,16.60
2019-06-08T23:34:54.680Z,16.50
2019-06-08T23:37:56.806Z,16.40
2019-06-08T23:41:00.775Z,16.40
2019-06-08T23:44:01.509Z,16.30
2019-06-08T23:47:04.375Z,16.30
2019-06-08T23:50:10.048Z,16.20
2019-06-08T23:53:10.975Z,16.20
2019-06-08T23:56:12.422Z,16.10
2019-06-08T23:59:13.830Z,16.10
